Flight Track Log - Related Links

Times and Time Zones

All times are in EDT time to prevent confusion due to time zone crossing. See the ASH3770 flight status page for this flight to view local times or setup timezone preferences in your user account.

Time Position Orientation Groundspeed Altitude Reporting Facility
EDT Latitude Longitude Course Direction KTS MPH feet Rate Location/Type
Thu 06:41:45 PM 40.5319 -80.4575 282° West 257 296 7,400  Level Cleveland Center
Thu 06:42:45 PM 40.5528 -80.5531 286° West 269 310 10,300 2,450 Climbing Cleveland Center
Thu 06:43:45 PM 40.5778 -80.6597 287° West 284 327 12,300 2,150 Climbing Cleveland Center
Thu 06:44:45 PM 40.6006 -80.7664 286° West 298 343 14,600 2,200 Climbing Cleveland Center
Thu 06:45:00 PM 40.6369 -80.9477 288° West  Level FlightAware Approximate
Thu 06:45:45 PM 40.6256 -80.8786 286° West 310 357 16,700  Level Cleveland Center
Thu 06:46:00 PM 40.6617 -81.0701 282° West  Level FlightAware Approximate
Thu 06:46:45 PM 40.6500 -80.9992 285° West 321 369 18,300  Level Cleveland Center
Thu 06:47:45 PM 40.6786 -81.1333 286° West 341 392 20,600 1,650 Climbing Cleveland Center
Thu 06:48:45 PM 40.7050 -81.2594 285° West 348 400 21,600 1,150 Climbing Cleveland Center
Thu 06:49:45 PM 40.7333 -81.3942 286° West 370 426 22,900 1,200 Climbing Cleveland Center
Thu 06:50:45 PM 40.7556 -81.5150 284° West 380 437 24,000 1,100 Climbing Cleveland Center
Thu 06:51:45 PM 40.7792 -81.6553 283° West 385 443 25,100 1,150 Climbing Cleveland Center
Thu 06:52:45 PM 40.8028 -81.7956 283° West 396 456 26,300 900 Climbing Cleveland Center
Thu 06:53:45 PM 40.8219 -81.9439 280° West 402 463 26,900 650 Climbing Cleveland Center
Thu 06:54:45 PM 40.8428 -82.1092 280° West 419 482 27,600 800 Climbing Cleveland Center
Thu 06:55:45 PM 40.8656 -82.2633 281° West 427 491 28,500 1,100 Climbing Cleveland Center
Thu 06:56:45 PM 40.8842 -82.4150 279° West 432 497 29,800 1,250 Climbing Cleveland Center
Thu 06:57:45 PM 40.9025 -82.5694 279° West 420 483 31,000 1,200 Climbing Cleveland Center
Thu 06:58:45 PM 40.9206 -82.7156 279° West 420 483 32,200 1,200 Climbing Cleveland Center
Thu 06:59:45 PM 40.9386 -82.8592 279° West 404 465 33,400 900 Climbing Cleveland Center
Thu 07:00:45 PM 40.9567 -83.0000 280° West 398 458 34,000 300 Climbing Cleveland Center
Thu 07:01:45 PM 40.9742 -83.1519 279° West 403 464 34,000  Level Cleveland Center
Thu 07:02:45 PM 40.9942 -83.2819 282° West 407 468 34,000  Level Cleveland Center
Thu 07:03:45 PM 41.0114 -83.4314 279° West 412 474 34,000  Level Cleveland Center
Thu 07:04:45 PM 41.0283 -83.5806 279° West 412 474 34,000  Level Cleveland Center
Thu 07:05:45 PM 41.0489 -83.7469 279° West 412 474 34,000  Level Cleveland Center
Thu 07:06:45 PM 41.0633 -83.8964 277° West 417 480 34,000  Level Cleveland Center
Thu 07:07:45 PM 41.0817 -84.0542 279° West 417 480 34,000  Level Cleveland Center
Thu 07:08:19 PM 41.0911 -84.1394 278° West 429 494 34,000  Level Chicago Center
Thu 07:09:21 PM 41.1083 -84.2961 278° West 429 494 34,000  Level Chicago Center
Thu 07:10:23 PM 41.1247 -84.4467 278° West 418 481 34,000  Level Chicago Center
Thu 07:11:25 PM 41.1397 -84.5858 278° West 385 443 34,000  Level Chicago Center
Thu 07:12:27 PM 41.1544 -84.7267 278° West 383 441 34,000  Level Chicago Center
Thu 07:13:29 PM 41.1697 -84.8681 278° West 387 445 34,000 -336 Level Chicago Center
Thu 07:14:32 PM 41.1878 -85.0389 278° West 388 447 33,300 -480 Descending Chicago Center
Thu 07:15:34 PM 41.2022 -85.1783 278° West 384 442 33,000 -435 Descending Chicago Center
Thu 07:16:36 PM 41.2153 -85.3203 277° West 384 442 32,400 -1,161 Descending Chicago Center
Thu 07:17:38 PM 41.2300 -85.4708 277° West 401 461 30,600 -1,839 Descending Chicago Center
Thu 07:18:40 PM 41.2444 -85.6172 278° West 401 461 28,600 -1,935 Descending Chicago Center
Thu 07:19:42 PM 41.2569 -85.7586 277° West 388 447 26,600 -1,742 Descending Chicago Center
Thu 07:20:44 PM 41.2703 -85.8978 277° West 381 438 25,000 -1,161 Descending Chicago Center
Thu 07:21:46 PM 41.2917 -86.0697 279° West 398 458 24,200 -1,065 Descending Chicago Center
Thu 07:22:48 PM 41.3264 -86.2094 288° West 401 461 22,800 -1,355 Descending Chicago Center
Thu 07:23:50 PM 41.3597 -86.3444 288° West 386 444 21,400 -1,344 Descending Chicago Center
Thu 07:24:53 PM 41.3939 -86.4797 289° West 384 442 20,000 -1,392 Descending Chicago Center
Thu 07:25:55 PM 41.4269 -86.6150 288° West 384 442 18,500 -1,597 Descending Chicago Center
Thu 07:26:57 PM 41.4675 -86.7686 289° West 379 436 16,700 -1,597 Descending Chicago Center
Thu 07:27:59 PM 41.4972 -86.8961 287° West 367 422 15,200 -1,452 Descending Chicago Center
Thu 07:29:01 PM 41.5281 -87.0197 288° West 356 410 13,700 -1,568 Descending Chicago Center
Thu 07:29:50 PM 41.5500 -87.1333 285° West 342 394 12,300 -1,431 Descending Chicago TRACON
Thu 07:30:50 PM 41.5833 -87.2500 291° West 333 383 11,100 -650 Descending Chicago TRACON
Thu 07:31:50 PM 41.6333 -87.3500 304° West 331 381 11,000 -78 Descending Chicago TRACON
Thu 07:32:07 PM 41.6497 -87.3756 311° West 330 380 11,000  Level Chicago Center
Thu 07:33:09 PM 41.7006 -87.4775 304° West 332 382 11,000  Level Chicago Center
Thu 07:34:11 PM 41.7531 -87.5797 305° West 337 388 11,000 -126 Level Chicago Center
Thu 07:34:44 PM 41.7833 -87.6500 300° West 315 362 10,800 -1,161 Descending Chicago TRACON
Thu 07:35:44 PM 41.8333 -87.7333 309° West 282 325 9,200 -850 Descending Chicago TRACON
Thu 07:36:44 PM 41.8833 -87.8167 309° West 289 333 9,100 -700 Descending Chicago TRACON
Thu 07:37:44 PM 41.8833 -87.9167 270° West 288 331 7,800 -1,041 Descending Chicago TRACON
Thu 07:38:45 PM 41.8833 -88.0167 270° West 250 288 7,000 -756 Descending Chicago TRACON
Thu 07:39:51 PM 41.8833 -88.1167 270° West 235 270 6,200 -909 Descending Chicago TRACON
Thu 07:40:24 PM 41.8847 -88.1581 273° West 232 267 5,500 -758 Descending Chicago Center
Thu 07:41:26 PM 41.8850 -88.2428 270° West 229 264 5,000 -726 Descending Chicago Center
Thu 07:42:28 PM 41.9433 -88.2578 349° North 243 280 4,000 -484 Descending Chicago Center
Thu 07:43:30 PM 41.9631 -88.1794 71° East 229 264 4,000 -387 Level Chicago Center
Thu 07:44:32 PM 41.9686 -88.1050 84° East 214 246 3,200 -963 Descending Chicago Center
Thu 07:44:51 PM 41.9667 -88.0667 94° East 174 200 2,700 -986 Descending Chicago TRACON
Thu 07:45:45 PM 41.9667 -88.0167 90° East 157 181 2,000 -737 Descending Chicago TRACON
Thu 07:46:45 PM 41.9667 -87.9667 90° East 126 145 1,300 -700 Descending Chicago TRACON
Thu 07:49:00 PM 41.9667 -87.9000 70° East  Level FlightAware Approximate

Login

Don't have an account? Register now (free) for customized features, flight alerts, and more!